createdAt,value
2022-11-19T00:01:21.990Z,13.37
2022-11-19T00:03:52.642Z,12.57
2022-11-19T00:06:21.908Z,11.47
2022-11-19T00:08:48.752Z,12.57
2022-11-19T00:11:40.902Z,10.63
2022-11-19T00:14:08.843Z,12.23
2022-11-19T00:16:35.751Z,15.63
2022-11-19T00:19:02.514Z,12.50
2022-11-19T00:21:29.193Z,13.13
2022-11-19T00:23:56.408Z,11.00
2022-11-19T00:26:23.553Z,14.03
2022-11-19T00:28:50.206Z,11.17
2022-11-19T00:31:17.634Z,14.00
2022-11-19T00:33:45.260Z,13.33
2022-11-19T00:36:14.280Z,8.53
2022-11-19T00:38:41.441Z,12.23
2022-11-19T00:41:08.525Z,11.30
2022-11-19T00:43:47.010Z,14.37
2022-11-19T00:46:20.584Z,12.00
2022-11-19T00:48:49.228Z,11.80
2022-11-19T00:51:17.762Z,10.70
2022-11-19T00:53:44.421Z,12.00
2022-11-19T00:56:13.859Z,10.57
2022-11-19T00:58:40.810Z,12.37
2022-11-19T01:01:08.755Z,11.90
2022-11-19T01:03:36.010Z,15.03
2022-11-19T01:06:03.087Z,11.53
2022-11-19T01:08:30.271Z,12.07
2022-11-19T01:11:03.594Z,13.27
2022-11-19T01:13:36.424Z,13.18
2022-11-19T01:16:05.874Z,15.37
2022-11-19T01:18:33.191Z,16.97
2022-11-19T01:20:59.947Z,15.17
2022-11-19T01:23:26.619Z,17.63
2022-11-19T01:25:53.395Z,13.33
2022-11-19T01:28:20.079Z,11.03
2022-11-19T01:30:46.844Z,14.60
2022-11-19T01:33:13.571Z,11.80
2022-11-19T01:35:40.372Z,10.00
2022-11-19T01:38:08.125Z,11.13
2022-11-19T01:40:42.778Z,12.33
2022-11-19T01:43:13.419Z,11.57
2022-11-19T01:45:52.724Z,11.20
2022-11-19T01:48:26.273Z,10.90
2022-11-19T01:51:14.682Z,11.65
2022-11-19T01:53:44.335Z,9.17
2022-11-19T01:56:11.381Z,10.83
2022-11-19T01:58:42.047Z,11.43
2022-11-19T02:01:10.556Z,9.63
2022-11-19T02:03:39.452Z,8.70
2022-11-19T02:06:07.628Z,10.73
2022-11-19T02:08:41.778Z,11.97
2022-11-19T02:11:35.807Z,11.30
2022-11-19T02:14:18.268Z,10.23
2022-11-19T02:16:59.970Z,10.20
2022-11-19T02:20:04.027Z,11.07
2022-11-19T02:23:01.181Z,11.10
2022-11-19T02:25:52.007Z,9.90
2022-11-19T02:28:40.591Z,11.60
2022-11-19T02:31:40.935Z,13.07
2022-11-19T02:34:17.363Z,8.40
2022-11-19T02:36:58.745Z,11.57
2022-11-19T02:39:41.260Z,11.83
2022-11-19T02:42:24.854Z,11.53
2022-11-19T02:45:08.498Z,14.57
2022-11-19T02:48:15.922Z,11.82
2022-11-19T02:50:54.723Z,10.47
2022-11-19T02:53:22.212Z,11.03
2022-11-19T02:56:08.844Z,12.03
2022-11-19T02:58:57.336Z,12.97
2022-11-19T03:01:44.145Z,11.23
2022-11-19T03:04:30.619Z,11.83
2022-11-19T03:07:12.403Z,15.77
2022-11-19T03:09:50.174Z,14.70
2022-11-19T03:12:32.826Z,12.97
2022-11-19T03:15:38.562Z,14.30
2022-11-19T03:18:30.854Z,15.63
2022-11-19T03:21:15.120Z,15.50
2022-11-19T03:26:35.122Z,17.63
2022-11-19T03:29:06.955Z,19.03
2022-11-19T03:31:35.797Z,20.93
2022-11-19T03:34:10.233Z,17.37
2022-11-19T03:36:40.344Z,16.03
2022-11-19T03:39:13.903Z,18.10
2022-11-19T03:41:42.511Z,16.75
2022-11-19T03:44:21.936Z,14.53
2022-11-19T03:46:54.722Z,14.37
2022-11-19T03:49:29.688Z,16.60
2022-11-19T03:52:01.631Z,15.90
2022-11-19T03:54:28.998Z,14.67
2022-11-19T03:56:57.703Z,14.53
2022-11-19T03:59:29.421Z,16.10
2022-11-19T04:02:00.712Z,15.93
2022-11-19T04:04:37.330Z,15.63
2022-11-19T04:07:12.385Z,19.17
2022-11-19T04:09:41.161Z,17.80
2022-11-19T04:12:13.769Z,17.70
2022-11-19T04:14:40.460Z,13.30
2022-11-19T04:17:07.132Z,12.47
2022-11-19T04:19:33.778Z,15.67
2022-11-19T04:22:00.457Z,12.97
2022-11-19T04:24:27.134Z,11.97
2022-11-19T04:26:53.778Z,12.10
2022-11-19T04:29:20.580Z,14.37
2022-11-19T04:31:47.538Z,13.10
2022-11-19T04:34:14.230Z,12.30
2022-11-19T04:36:42.120Z,11.47
2022-11-19T04:39:10.308Z,10.27
2022-11-19T04:41:36.963Z,12.07
2022-11-19T04:44:03.738Z,12.57
2022-11-19T04:46:30.700Z,11.67
2022-11-19T04:48:58.045Z,12.87
2022-11-19T04:51:24.719Z,13.07
2022-11-19T04:53:51.516Z,11.27
2022-11-19T04:56:18.321Z,12.30
2022-11-19T04:58:44.976Z,10.93
2022-11-19T05:01:11.717Z,16.90
2022-11-19T05:03:38.453Z,10.87
2022-11-19T05:06:05.360Z,11.07
2022-11-19T05:08:32.002Z,12.60
2022-11-19T05:10:58.658Z,11.73
2022-11-19T05:13:25.281Z,11.70
2022-11-19T05:15:51.968Z,11.23
2022-11-19T05:18:18.691Z,13.93
2022-11-19T05:20:45.402Z,11.80
2022-11-19T05:23:12.656Z,10.77
2022-11-19T05:25:39.493Z,12.67
2022-11-19T05:28:06.494Z,12.13
2022-11-19T05:30:33.148Z,11.37
2022-11-19T05:32:59.786Z,14.17
2022-11-19T05:35:26.549Z,12.70
2022-11-19T05:37:53.176Z,11.27
2022-11-19T05:40:19.867Z,12.70
2022-11-19T05:42:46.512Z,10.37
2022-11-19T05:45:13.566Z,9.40
2022-11-19T05:47:43.439Z,10.27
2022-11-19T05:50:14.254Z,13.88
2022-11-19T05:52:40.902Z,22.43
2022-11-19T05:55:07.726Z,10.17
2022-11-19T05:57:34.375Z,13.30
2022-11-19T06:00:01.036Z,12.47
2022-11-19T06:02:28.196Z,13.00
2022-11-19T06:04:55.524Z,10.57
2022-11-19T06:07:22.295Z,11.80
2022-11-19T06:09:49.001Z,14.13
2022-11-19T06:12:15.723Z,11.83
2022-11-19T06:14:42.335Z,10.90
2022-11-19T06:17:09.217Z,10.63
2022-11-19T06:19:35.979Z,15.47
2022-11-19T06:22:02.674Z,20.37
2022-11-19T06:24:29.899Z,18.30
2022-11-19T06:26:56.670Z,19.70
2022-11-19T06:29:23.339Z,17.10
2022-11-19T06:31:50.025Z,14.63
2022-11-19T06:34:16.666Z,15.00
2022-11-19T06:36:49.075Z,18.33
2022-11-19T06:39:17.238Z,15.95
2022-11-19T06:41:44.080Z,20.00
2022-11-19T06:44:10.728Z,17.43
2022-11-19T06:46:38.324Z,24.87
2022-11-19T06:49:05.744Z,24.90
2022-11-19T06:51:33.083Z,20.83
2022-11-19T06:53:59.778Z,21.03
2022-11-19T06:56:26.494Z,16.50
2022-11-19T06:58:57.131Z,15.93
2022-11-19T07:01:23.927Z,11.13
2022-11-19T07:03:50.587Z,13.07
2022-11-19T07:06:17.264Z,12.87
2022-11-19T07:08:43.898Z,13.10
2022-11-19T07:11:25.739Z,17.60
2022-11-19T07:13:59.955Z,15.80
2022-11-19T07:16:30.396Z,21.60
2022-11-19T07:18:59.058Z,25.67
2022-11-19T07:21:26.352Z,20.50
2022-11-19T07:23:53.620Z,18.70
2022-11-19T07:26:20.469Z,17.53
2022-11-19T07:28:47.140Z,15.53
2022-11-19T07:31:13.965Z,14.80
2022-11-19T07:33:40.798Z,18.90
2022-11-19T07:36:12.793Z,21.20
2022-11-19T07:38:43.624Z,17.37
2022-11-19T07:41:28.954Z,12.80
2022-11-19T07:43:55.637Z,18.23
2022-11-19T07:46:23.230Z,18.50
2022-11-19T07:48:57.680Z,20.10
2022-11-19T07:51:25.128Z,21.37
2022-11-19T07:53:52.427Z,22.97
2022-11-19T07:56:20.075Z,17.77
2022-11-19T07:58:47.090Z,17.67
2022-11-19T08:01:18.345Z,18.27
2022-11-19T08:03:54.877Z,19.03
2022-11-19T08:06:24.802Z,18.20
2022-11-19T08:08:51.524Z,18.53
2022-11-19T08:11:18.784Z,17.37
2022-11-19T08:13:45.596Z,17.50
2022-11-19T08:16:34.213Z,22.47
2022-11-19T08:19:02.695Z,20.23
2022-11-19T08:21:29.359Z,15.87
2022-11-19T08:23:56.699Z,17.80
2022-11-19T08:26:23.568Z,18.07
2022-11-19T08:28:50.246Z,18.73
2022-11-19T08:31:17.459Z,16.43
2022-11-19T08:33:44.114Z,18.97
2022-11-19T08:36:10.798Z,18.30
2022-11-19T08:38:38.957Z,15.53
2022-11-19T08:41:24.595Z,18.43
2022-11-19T08:43:51.266Z,18.73
2022-11-19T08:46:18.095Z,17.70
2022-11-19T08:48:44.800Z,14.43
2022-11-19T08:51:13.315Z,17.90
2022-11-19T08:53:40.208Z,16.10
2022-11-19T08:56:07.461Z,15.17
2022-11-19T08:58:34.328Z,12.03
2022-11-19T09:01:01.070Z,12.23
2022-11-19T09:03:27.734Z,14.50
2022-11-19T09:06:01.076Z,14.07
2022-11-19T09:08:27.778Z,13.95
2022-11-19T09:10:54.494Z,13.30
2022-11-19T09:13:21.421Z,12.73
2022-11-19T09:15:49.201Z,11.30
2022-11-19T09:18:15.934Z,13.03
2022-11-19T09:20:42.908Z,13.37
2022-11-19T09:23:09.667Z,12.07
2022-11-19T09:25:36.336Z,11.77
2022-11-19T09:28:03.020Z,14.13
2022-11-19T09:30:29.724Z,9.53
2022-11-19T09:32:59.478Z,12.23
2022-11-19T09:35:26.163Z,10.30
2022-11-19T09:37:52.793Z,9.33
2022-11-19T09:40:21.671Z,8.00
2022-11-19T09:43:07.789Z,8.93
2022-11-19T09:46:12.339Z,10.07
2022-11-19T09:48:39.924Z,9.33
2022-11-19T09:51:11.434Z,8.50
2022-11-19T09:53:48.571Z,9.37
2022-11-19T09:56:22.876Z,8.87
2022-11-19T09:58:49.545Z,8.52
2022-11-19T10:01:18.393Z,8.60
2022-11-19T10:03:49.422Z,7.15
2022-11-19T10:06:42.368Z,12.18
2022-11-19T10:09:36.186Z,6.72
2022-11-19T10:12:15.793Z,10.43
2022-11-19T10:14:56.936Z,7.70
2022-11-19T10:18:28.152Z,6.75
2022-11-19T10:21:38.827Z,9.02
2022-11-19T10:24:24.074Z,6.55
2022-11-19T10:27:08.363Z,7.53
2022-11-19T10:29:38.932Z,7.57
2022-11-19T10:32:34.198Z,7.93
2022-11-19T10:35:07.686Z,6.80
2022-11-19T10:37:41.950Z,7.00
2022-11-19T10:40:15.439Z,6.18
2022-11-19T10:42:48.216Z,13.95
2022-11-19T10:45:31.154Z,6.40
2022-11-19T10:48:18.625Z,6.50
2022-11-19T10:50:45.327Z,6.75
2022-11-19T10:53:32.036Z,10.02
2022-11-19T10:56:06.190Z,6.72
2022-11-19T11:01:29.718Z,7.50
2022-11-19T11:04:11.725Z,11.55
2022-11-19T11:07:04.833Z,7.45
2022-11-19T11:09:40.591Z,6.80
2022-11-19T11:12:36.669Z,6.53
2022-11-19T11:15:16.603Z,8.93
2022-11-19T11:17:46.555Z,9.40
2022-11-19T11:20:17.044Z,6.95
2022-11-19T11:22:46.632Z,6.45
2022-11-19T11:25:21.632Z,6.60
2022-11-19T11:28:09.083Z,6.78
2022-11-19T11:30:35.838Z,10.85
2022-11-19T11:33:32.119Z,7.38
2022-11-19T11:36:06.029Z,7.35
2022-11-19T11:38:39.727Z,5.93
2022-11-19T11:41:56.338Z,8.35
2022-11-19T11:44:03.396Z,6.50
2022-11-19T11:46:53.096Z,8.23
2022-11-19T11:49:36.478Z,7.68
2022-11-19T11:52:09.559Z,8.88
2022-11-19T11:54:38.490Z,6.78
2022-11-19T11:57:27.753Z,7.07
2022-11-19T11:59:54.883Z,6.97
2022-11-19T12:02:27.800Z,6.22
2022-11-19T12:04:55.472Z,6.90
2022-11-19T12:07:45.232Z,5.82
2022-11-19T12:10:33.971Z,7.55
2022-11-19T12:13:30.452Z,4.88
2022-11-19T12:16:18.872Z,5.38
2022-11-19T12:19:23.323Z,5.18
2022-11-19T12:21:52.978Z,6.15
2022-11-19T12:25:19.899Z,6.78
2022-11-19T12:28:14.682Z,7.97
2022-11-19T12:33:27.184Z,5.50
2022-11-19T12:36:11.482Z,5.32
2022-11-19T12:38:55.957Z,8.60
2022-11-19T12:41:34.240Z,5.65
2022-11-19T12:44:02.886Z,5.50
2022-11-19T12:46:37.478Z,7.18
2022-11-19T12:49:06.704Z,6.25
2022-11-19T12:51:58.984Z,5.70
2022-11-19T12:55:00.571Z,5.38
2022-11-19T12:57:52.223Z,6.35
2022-11-19T13:00:28.067Z,7.55
2022-11-19T13:03:31.003Z,9.95
2022-11-19T13:06:05.200Z,7.82
2022-11-19T13:08:43.646Z,7.38
2022-11-19T13:11:28.520Z,6.70
2022-11-19T13:14:15.000Z,7.20
2022-11-19T13:16:43.024Z,7.43
2022-11-19T13:19:15.884Z,8.32
2022-11-19T13:21:56.889Z,8.82
2022-11-19T13:24:36.732Z,6.88
2022-11-19T13:27:06.292Z,6.85
2022-11-19T13:29:47.739Z,7.15
2022-11-19T13:32:21.292Z,7.05
2022-11-19T13:35:06.116Z,7.53
2022-11-19T13:38:00.088Z,6.38
2022-11-19T13:40:38.547Z,5.72
2022-11-19T13:43:32.029Z,6.78
2022-11-19T13:46:16.676Z,8.60
2022-11-19T13:49:02.851Z,10.02
2022-11-19T13:51:40.199Z,5.80
2022-11-19T13:54:09.268Z,6.70
2022-11-19T13:56:45.776Z,6.38
2022-11-19T13:59:27.478Z,5.60
2022-11-19T14:02:15.511Z,6.60
2022-11-19T14:05:10.519Z,7.95
2022-11-19T14:08:19.114Z,7.20
2022-11-19T14:11:07.969Z,6.63
2022-11-19T14:13:49.710Z,6.35
2022-11-19T14:16:44.301Z,9.80
2022-11-19T14:19:33.256Z,7.13
2022-11-19T14:22:20.439Z,10.77
2022-11-19T14:25:05.954Z,7.53
2022-11-19T14:27:33.712Z,7.43
2022-11-19T14:30:05.205Z,6.28
2022-11-19T14:32:47.626Z,7.03
2022-11-19T14:35:23.625Z,7.55
2022-11-19T14:37:54.122Z,7.97
2022-11-19T14:40:26.178Z,9.27
2022-11-19T14:43:20.514Z,10.40
2022-11-19T14:46:05.314Z,8.93
2022-11-19T14:48:54.666Z,10.98
2022-11-19T14:51:37.298Z,9.82
2022-11-19T14:54:16.195Z,10.25
2022-11-19T14:56:47.540Z,9.98
2022-11-19T14:59:30.830Z,12.02
2022-11-19T15:01:59.035Z,8.68
2022-11-19T15:04:34.592Z,10.52
2022-11-19T15:07:02.654Z,17.83
2022-11-19T15:10:07.171Z,8.73
2022-11-19T15:12:46.125Z,11.73
2022-11-19T15:15:22.378Z,12.32
2022-11-19T15:18:02.342Z,9.35
2022-11-19T15:20:35.249Z,12.43
2022-11-19T15:23:10.948Z,9.00
2022-11-19T15:25:47.616Z,13.05
2022-11-19T15:28:20.390Z,12.70
2022-11-19T15:31:05.205Z,12.25
2022-11-19T15:33:43.653Z,9.93
2022-11-19T15:36:31.155Z,9.98
2022-11-19T15:39:14.085Z,8.45
2022-11-19T15:42:00.220Z,9.15
2022-11-19T15:44:41.590Z,11.18
2022-11-19T15:47:14.756Z,8.95
2022-11-19T15:49:44.691Z,11.17
2022-11-19T15:52:17.545Z,10.57
2022-11-19T15:54:45.051Z,12.02
2022-11-19T15:57:23.113Z,11.07
2022-11-19T15:59:59.904Z,12.70
2022-11-19T16:02:40.502Z,9.77
2022-11-19T16:05:16.326Z,12.32
2022-11-19T16:07:46.565Z,11.00
2022-11-19T16:10:19.843Z,11.23
2022-11-19T16:13:17.832Z,11.05
2022-11-19T16:16:11.157Z,11.20
2022-11-19T16:18:49.016Z,12.50
2022-11-19T16:21:30.736Z,13.00
2022-11-19T16:24:17.334Z,10.65
2022-11-19T16:26:44.366Z,12.00
2022-11-19T16:29:23.304Z,13.20
2022-11-19T16:31:51.896Z,14.70
2022-11-19T16:34:23.274Z,12.73
2022-11-19T16:36:51.031Z,11.95
2022-11-19T16:39:25.024Z,14.45
2022-11-19T16:42:15.500Z,12.43
2022-11-19T16:44:48.230Z,12.15
2022-11-19T16:47:21.712Z,13.45
2022-11-19T16:49:48.343Z,14.90
2022-11-19T16:52:41.460Z,15.77
2022-11-19T16:55:26.352Z,12.45
2022-11-19T16:57:57.287Z,12.20
2022-11-19T17:00:28.299Z,12.55
2022-11-19T17:02:57.477Z,14.10
2022-11-19T17:05:28.539Z,12.43
2022-11-19T17:08:10.340Z,13.55
2022-11-19T17:10:39.104Z,12.75
2022-11-19T17:13:30.716Z,13.80
2022-11-19T17:16:20.203Z,16.88
2022-11-19T17:18:49.018Z,14.13
2022-11-19T17:21:29.617Z,12.68
2022-11-19T17:23:56.832Z,16.70
2022-11-19T17:26:27.289Z,16.73
2022-11-19T17:29:15.996Z,13.45
2022-11-19T17:31:47.948Z,16.50
2022-11-19T17:34:31.686Z,16.52
2022-11-19T17:36:59.262Z,16.75
2022-11-19T17:39:26.064Z,17.70
2022-11-19T17:42:13.600Z,18.30
2022-11-19T17:44:40.921Z,13.45
2022-11-19T17:47:23.541Z,13.38
2022-11-19T17:49:51.342Z,18.23
2022-11-19T17:52:26.702Z,13.88
2022-11-19T17:54:57.470Z,13.57
2022-11-19T17:57:24.538Z,13.50
2022-11-19T17:59:51.342Z,14.35
2022-11-19T18:02:20.575Z,14.63
2022-11-19T18:04:48.176Z,15.13
2022-11-19T18:07:15.349Z,12.60
2022-11-19T18:09:42.603Z,14.00
2022-11-19T18:12:15.424Z,16.10
2022-11-19T18:14:42.854Z,13.40
2022-11-19T18:17:14.504Z,15.73
2022-11-19T18:19:41.214Z,13.27
2022-11-19T18:22:17.107Z,13.63
2022-11-19T18:24:44.188Z,16.08
2022-11-19T18:27:10.897Z,13.43
2022-11-19T18:29:38.078Z,16.30
2022-11-19T18:32:05.024Z,12.18
2022-11-19T18:34:31.736Z,15.05
2022-11-19T18:36:58.399Z,14.82
2022-11-19T18:39:25.356Z,15.68
2022-11-19T18:41:52.094Z,16.60
2022-11-19T18:44:34.041Z,19.60
2022-11-19T18:47:09.965Z,18.08
2022-11-19T18:49:37.223Z,18.42
2022-11-19T18:52:06.483Z,17.73
2022-11-19T18:54:33.467Z,18.27
2022-11-19T18:57:00.502Z,17.83
2022-11-19T18:59:27.216Z,20.00
2022-11-19T19:01:55.681Z,22.50
2022-11-19T19:04:23.945Z,18.88
2022-11-19T19:06:50.932Z,17.52
2022-11-19T19:09:21.066Z,22.42
2022-11-19T19:12:13.126Z,20.63
2022-11-19T19:14:41.500Z,18.73
2022-11-19T19:17:08.512Z,17.60
2022-11-19T19:19:35.578Z,19.67
2022-11-19T19:22:02.353Z,16.60
2022-11-19T19:24:29.356Z,19.58
2022-11-19T19:26:56.018Z,19.70
2022-11-19T19:29:22.848Z,21.90
2022-11-19T19:31:49.723Z,16.83
2022-11-19T19:34:17.004Z,16.33
2022-11-19T19:36:47.601Z,18.13
2022-11-19T19:39:15.712Z,20.55
2022-11-19T19:41:42.377Z,20.27
2022-11-19T19:44:10.330Z,20.08
2022-11-19T19:46:37.016Z,17.80
2022-11-19T19:49:03.837Z,20.67
2022-11-19T19:51:32.472Z,18.60
2022-11-19T19:53:59.496Z,19.55
2022-11-19T19:56:31.428Z,18.10
2022-11-19T19:58:59.104Z,18.95
2022-11-19T20:01:30.527Z,19.38
2022-11-19T20:04:09.204Z,20.60
2022-11-19T20:06:38.044Z,20.10
2022-11-19T20:09:08.856Z,18.95
2022-11-19T20:11:36.607Z,22.75
2022-11-19T20:14:04.311Z,18.80
2022-11-19T20:16:32.652Z,20.20
2022-11-19T20:19:00.731Z,23.23
2022-11-19T20:21:31.597Z,21.23
2022-11-19T20:23:58.370Z,18.77
2022-11-19T20:26:27.910Z,23.60
2022-11-19T20:29:00.053Z,19.25
2022-11-19T20:31:28.471Z,20.00
2022-11-19T20:34:01.338Z,21.63
2022-11-19T20:36:30.255Z,21.35
2022-11-19T20:39:00.379Z,20.83
2022-11-19T20:41:46.695Z,21.83
2022-11-19T20:44:21.283Z,21.90
2022-11-19T20:46:53.894Z,17.60
2022-11-19T20:49:23.622Z,20.48
2022-11-19T20:51:51.293Z,18.02
2022-11-19T20:54:18.884Z,19.80
2022-11-19T20:56:45.721Z,21.23
2022-11-19T20:59:12.652Z,20.25
2022-11-19T21:01:39.791Z,20.20
2022-11-19T21:04:06.986Z,20.67
2022-11-19T21:06:34.110Z,20.33
2022-11-19T21:09:01.051Z,20.38
2022-11-19T21:11:27.825Z,21.92
2022-11-19T21:13:54.504Z,22.00
2022-11-19T21:16:23.720Z,19.95
2022-11-19T21:18:51.017Z,24.20
2022-11-19T21:21:19.764Z,17.40
2022-11-19T21:23:46.404Z,20.45
2022-11-19T21:26:19.576Z,19.42
2022-11-19T21:28:48.539Z,24.13
2022-11-19T21:31:16.622Z,19.80
2022-11-19T21:33:43.636Z,23.15
2022-11-19T21:36:10.502Z,19.55
2022-11-19T21:38:37.181Z,19.95
2022-11-19T21:41:05.865Z,19.00
2022-11-19T21:43:33.013Z,20.48
2022-11-19T21:45:59.772Z,20.02
2022-11-19T21:48:26.874Z,18.75
2022-11-19T21:50:53.934Z,19.70
2022-11-19T21:53:21.092Z,32.35
2022-11-19T21:55:49.167Z,30.45
2022-11-19T21:58:16.588Z,21.17
2022-11-19T22:00:43.905Z,18.85
2022-11-19T22:03:10.715Z,21.90
2022-11-19T22:05:37.429Z,19.38
2022-11-19T22:08:04.169Z,19.35
2022-11-19T22:10:31.073Z,21.50
2022-11-19T22:12:58.662Z,21.00
2022-11-19T22:15:26.383Z,22.40
2022-11-19T22:17:53.542Z,21.33
2022-11-19T22:20:20.266Z,20.85
2022-11-19T22:22:50.070Z,20.67
2022-11-19T22:25:16.908Z,20.45
2022-11-19T22:27:43.583Z,19.40
2022-11-19T22:30:12.208Z,19.13
2022-11-19T22:32:38.905Z,21.92
2022-11-19T22:35:06.006Z,23.38
2022-11-19T22:37:33.542Z,20.67
2022-11-19T22:40:00.329Z,24.00
2022-11-19T22:42:27.078Z,18.70
2022-11-19T22:44:53.799Z,21.90
2022-11-19T22:47:20.571Z,20.77
2022-11-19T22:49:47.233Z,19.05
2022-11-19T22:52:15.521Z,19.08
2022-11-19T22:54:42.200Z,21.58
2022-11-19T22:57:09.552Z,21.55
2022-11-19T22:59:36.372Z,20.00
2022-11-19T23:02:03.035Z,23.67
2022-11-19T23:04:29.698Z,21.77
2022-11-19T23:06:56.589Z,21.30
2022-11-19T23:09:23.666Z,24.95
2022-11-19T23:12:08.875Z,21.13
2022-11-19T23:14:38.364Z,19.85
2022-11-19T23:17:05.050Z,24.75
2022-11-19T23:19:31.792Z,23.33
2022-11-19T23:21:58.589Z,24.17
2022-11-19T23:24:25.248Z,21.38
2022-11-19T23:26:51.984Z,21.67
2022-11-19T23:29:19.056Z,22.13
2022-11-19T23:31:46.003Z,21.05
2022-11-19T23:34:12.688Z,24.63
2022-11-19T23:36:40.714Z,23.85
2022-11-19T23:39:10.288Z,23.88
2022-11-19T23:41:37.093Z,24.52
2022-11-19T23:44:04.307Z,25.92
2022-11-19T23:46:32.965Z,22.50
2022-11-19T23:49:00.430Z,24.23
2022-11-19T23:51:29.621Z,26.25
2022-11-19T23:53:56.692Z,26.05
2022-11-19T23:56:24.922Z,26.25
2022-11-19T23:58:52.071Z,23.35
